sensor_id;sensor_type;location;lat;lon;timestamp;P1;durP1;ratioP1;P2;durP2;ratioP2
70545;SDS011;58098;51.680;5.134;2023-10-31T00:00:00;30.83;;;13.97;;
70545;SDS011;58098;51.680;5.134;2023-10-31T00:02:28;21.27;;;11.57;;
70545;SDS011;58098;51.680;5.134;2023-10-31T00:04:53;24.63;;;11.00;;
70545;SDS011;58098;51.680;5.134;2023-10-31T00:07:19;20.00;;;8.83;;
70545;SDS011;58098;51.680;5.134;2023-10-31T00:09:44;15.10;;;7.77;;
70545;SDS011;58098;51.680;5.134;2023-10-31T00:12:09;17.53;;;6.00;;
70545;SDS011;58098;51.680;5.134;2023-10-31T00:14:35;10.50;;;4.90;;
70545;SDS011;58098;51.680;5.134;2023-10-31T00:17:00;10.30;;;3.93;;
70545;SDS011;58098;51.680;5.134;2023-10-31T00:19:25;13.37;;;4.23;;
70545;SDS011;58098;51.680;5.134;2023-10-31T00:21:51;13.50;;;4.65;;
70545;SDS011;58098;51.680;5.134;2023-10-31T00:24:16;16.93;;;4.00;;
70545;SDS011;58098;51.680;5.134;2023-10-31T00:26:42;9.77;;;2.90;;
70545;SDS011;58098;51.680;5.134;2023-10-31T00:29:07;13.30;;;3.57;;
70545;SDS011;58098;51.680;5.134;2023-10-31T00:31:33;12.77;;;3.40;;
70545;SDS011;58098;51.680;5.134;2023-10-31T00:34:00;8.80;;;3.42;;
70545;SDS011;58098;51.680;5.134;2023-10-31T00:36:26;8.70;;;3.20;;
70545;SDS011;58098;51.680;5.134;2023-10-31T00:38:51;14.53;;;3.57;;
70545;SDS011;58098;51.680;5.134;2023-10-31T00:41:17;6.93;;;3.07;;
70545;SDS011;58098;51.680;5.134;2023-10-31T00:43:42;8.37;;;3.90;;
70545;SDS011;58098;51.680;5.134;2023-10-31T00:46:07;9.37;;;4.53;;
70545;SDS011;58098;51.680;5.134;2023-10-31T00:48:33;13.20;;;4.03;;
70545;SDS011;58098;51.680;5.134;2023-10-31T00:51:02;10.88;;;4.50;;
70545;SDS011;58098;51.680;5.134;2023-10-31T00:53:28;8.73;;;3.80;;
70545;SDS011;58098;51.680;5.134;2023-10-31T00:55:53;11.27;;;4.03;;
70545;SDS011;58098;51.680;5.134;2023-10-31T00:58:18;12.73;;;4.10;;
70545;SDS011;58098;51.680;5.134;2023-10-31T01:00:44;15.40;;;4.80;;
70545;SDS011;58098;51.680;5.134;2023-10-31T01:03:09;9.20;;;4.17;;
70545;SDS011;58098;51.680;5.134;2023-10-31T01:05:34;16.27;;;5.03;;
70545;SDS011;58098;51.680;5.134;2023-10-31T01:08:00;10.47;;;4.93;;
70545;SDS011;58098;51.680;5.134;2023-10-31T01:10:25;10.98;;;5.10;;
70545;SDS011;58098;51.680;5.134;2023-10-31T01:12:50;13.87;;;5.60;;
70545;SDS011;58098;51.680;5.134;2023-10-31T01:15:15;18.97;;;6.87;;
70545;SDS011;58098;51.680;5.134;2023-10-31T01:17:41;17.00;;;6.63;;
70545;SDS011;58098;51.680;5.134;2023-10-31T01:20:06;17.93;;;7.47;;
70545;SDS011;58098;51.680;5.134;2023-10-31T01:22:32;14.90;;;7.60;;
70545;SDS011;58098;51.680;5.134;2023-10-31T01:24:57;18.50;;;8.10;;
70545;SDS011;58098;51.680;5.134;2023-10-31T01:27:23;22.23;;;7.63;;
70545;SDS011;58098;51.680;5.134;2023-10-31T01:29:48;21.97;;;9.60;;
70545;SDS011;58098;51.680;5.134;2023-10-31T01:32:13;27.47;;;12.00;;
70545;SDS011;58098;51.680;5.134;2023-10-31T01:34:39;20.08;;;10.25;;
70545;SDS011;58098;51.680;5.134;2023-10-31T01:37:05;28.27;;;11.47;;
70545;SDS011;58098;51.680;5.134;2023-10-31T01:39:30;30.42;;;12.95;;
70545;SDS011;58098;51.680;5.134;2023-10-31T01:41:55;33.97;;;15.40;;
70545;SDS011;58098;51.680;5.134;2023-10-31T01:44:21;28.00;;;14.50;;
70545;SDS011;58098;51.680;5.134;2023-10-31T01:46:46;37.20;;;17.83;;
70545;SDS011;58098;51.680;5.134;2023-10-31T01:49:12;37.97;;;17.67;;
70545;SDS011;58098;51.680;5.134;2023-10-31T01:51:40;40.90;;;18.43;;
70545;SDS011;58098;51.680;5.134;2023-10-31T01:54:06;49.75;;;20.65;;
70545;SDS011;58098;51.680;5.134;2023-10-31T01:56:33;54.17;;;22.63;;
70545;SDS011;58098;51.680;5.134;2023-10-31T01:58:58;45.87;;;20.77;;
70545;SDS011;58098;51.680;5.134;2023-10-31T02:01:24;51.50;;;23.87;;
70545;SDS011;58098;51.680;5.134;2023-10-31T02:03:49;57.97;;;24.88;;
70545;SDS011;58098;51.680;5.134;2023-10-31T02:06:15;58.40;;;24.73;;
70545;SDS011;58098;51.680;5.134;2023-10-31T02:08:41;55.78;;;25.95;;
70545;SDS011;58098;51.680;5.134;2023-10-31T02:11:06;61.20;;;27.83;;
70545;SDS011;58098;51.680;5.134;2023-10-31T02:13:34;66.35;;;29.67;;
70545;SDS011;58098;51.680;5.134;2023-10-31T02:16:01;62.80;;;27.65;;
70545;SDS011;58098;51.680;5.134;2023-10-31T02:18:26;66.07;;;28.17;;
70545;SDS011;58098;51.680;5.134;2023-10-31T02:20:52;64.03;;;29.67;;
70545;SDS011;58098;51.680;5.134;2023-10-31T02:23:17;62.27;;;28.13;;
70545;SDS011;58098;51.680;5.134;2023-10-31T02:25:43;60.27;;;26.83;;
70545;SDS011;58098;51.680;5.134;2023-10-31T02:28:08;69.57;;;29.80;;
70545;SDS011;58098;51.680;5.134;2023-10-31T02:30:34;67.97;;;28.67;;
70545;SDS011;58098;51.680;5.134;2023-10-31T02:33:00;67.65;;;30.48;;
70545;SDS011;58098;51.680;5.134;2023-10-31T02:35:26;68.35;;;30.92;;
70545;SDS011;58098;51.680;5.134;2023-10-31T02:37:52;65.50;;;29.07;;
70545;SDS011;58098;51.680;5.134;2023-10-31T02:40:17;58.77;;;28.00;;
70545;SDS011;58098;51.680;5.134;2023-10-31T02:42:43;63.85;;;29.73;;
70545;SDS011;58098;51.680;5.134;2023-10-31T02:45:09;62.33;;;28.63;;
70545;SDS011;58098;51.680;5.134;2023-10-31T02:47:34;64.30;;;29.17;;
70545;SDS011;58098;51.680;5.134;2023-10-31T02:50:00;59.13;;;26.30;;
70545;SDS011;58098;51.680;5.134;2023-10-31T02:52:25;62.93;;;28.77;;
70545;SDS011;58098;51.680;5.134;2023-10-31T02:54:50;47.50;;;23.43;;
70545;SDS011;58098;51.680;5.134;2023-10-31T02:57:16;63.43;;;27.93;;
70545;SDS011;58098;51.680;5.134;2023-10-31T02:59:41;53.80;;;25.33;;
70545;SDS011;58098;51.680;5.134;2023-10-31T03:02:07;56.57;;;26.57;;
70545;SDS011;58098;51.680;5.134;2023-10-31T03:04:32;54.88;;;26.02;;
70545;SDS011;58098;51.680;5.134;2023-10-31T03:06:58;58.73;;;25.67;;
70545;SDS011;58098;51.680;5.134;2023-10-31T03:09:23;54.77;;;25.37;;
70545;SDS011;58098;51.680;5.134;2023-10-31T03:11:48;61.47;;;26.07;;
70545;SDS011;58098;51.680;5.134;2023-10-31T03:14:14;50.93;;;22.83;;
70545;SDS011;58098;51.680;5.134;2023-10-31T03:16:39;53.97;;;24.63;;
70545;SDS011;58098;51.680;5.134;2023-10-31T03:19:05;48.20;;;22.37;;
70545;SDS011;58098;51.680;5.134;2023-10-31T03:21:30;51.75;;;23.30;;
70545;SDS011;58098;51.680;5.134;2023-10-31T03:23:56;50.80;;;23.77;;
70545;SDS011;58098;51.680;5.134;2023-10-31T03:26:21;53.30;;;24.03;;
70545;SDS011;58098;51.680;5.134;2023-10-31T03:28:47;47.67;;;22.13;;
70545;SDS011;58098;51.680;5.134;2023-10-31T03:31:13;52.13;;;24.03;;
70545;SDS011;58098;51.680;5.134;2023-10-31T03:33:39;59.45;;;23.77;;
70545;SDS011;58098;51.680;5.134;2023-10-31T03:36:04;54.97;;;25.83;;
70545;SDS011;58098;51.680;5.134;2023-10-31T03:38:31;52.33;;;21.87;;
70545;SDS011;58098;51.680;5.134;2023-10-31T03:40:56;64.60;;;28.55;;
70545;SDS011;58098;51.680;5.134;2023-10-31T03:43:22;58.37;;;24.43;;
70545;SDS011;58098;51.680;5.134;2023-10-31T03:45:47;54.77;;;25.07;;
70545;SDS011;58098;51.680;5.134;2023-10-31T03:48:12;58.30;;;25.27;;
70545;SDS011;58098;51.680;5.134;2023-10-31T03:50:38;53.17;;;22.87;;
70545;SDS011;58098;51.680;5.134;2023-10-31T03:53:03;54.17;;;25.10;;
70545;SDS011;58098;51.680;5.134;2023-10-31T03:55:29;56.10;;;26.00;;
70545;SDS011;58098;51.680;5.134;2023-10-31T03:57:55;55.58;;;26.75;;
70545;SDS011;58098;51.680;5.134;2023-10-31T04:00:21;59.80;;;25.58;;
70545;SDS011;58098;51.680;5.134;2023-10-31T04:02:46;54.63;;;25.83;;
70545;SDS011;58098;51.680;5.134;2023-10-31T04:05:11;52.90;;;24.87;;
70545;SDS011;58098;51.680;5.134;2023-10-31T04:07:37;60.33;;;25.87;;
70545;SDS011;58098;51.680;5.134;2023-10-31T04:10:03;62.03;;;26.00;;
70545;SDS011;58098;51.680;5.134;2023-10-31T04:12:28;52.20;;;24.30;;
70545;SDS011;58098;51.680;5.134;2023-10-31T04:14:54;53.90;;;24.70;;
70545;SDS011;58098;51.680;5.134;2023-10-31T04:17:19;49.50;;;21.83;;
70545;SDS011;58098;51.680;5.134;2023-10-31T04:19:44;49.57;;;22.73;;
70545;SDS011;58098;51.680;5.134;2023-10-31T04:22:10;51.17;;;22.60;;
70545;SDS011;58098;51.680;5.134;2023-10-31T04:24:35;50.33;;;22.13;;
70545;SDS011;58098;51.680;5.134;2023-10-31T04:27:00;43.73;;;20.70;;
70545;SDS011;58098;51.680;5.134;2023-10-31T04:29:26;40.03;;;19.13;;
70545;SDS011;58098;51.680;5.134;2023-10-31T04:31:51;48.33;;;21.75;;
70545;SDS011;58098;51.680;5.134;2023-10-31T04:34:16;49.30;;;21.40;;
70545;SDS011;58098;51.680;5.134;2023-10-31T04:36:42;56.07;;;24.20;;
70545;SDS011;58098;51.680;5.134;2023-10-31T04:39:07;49.43;;;21.77;;
70545;SDS011;58098;51.680;5.134;2023-10-31T04:41:32;52.70;;;23.17;;
70545;SDS011;58098;51.680;5.134;2023-10-31T04:43:58;48.77;;;22.17;;
70545;SDS011;58098;51.680;5.134;2023-10-31T04:46:24;48.10;;;20.17;;
70545;SDS011;58098;51.680;5.134;2023-10-31T04:48:51;43.43;;;19.70;;
70545;SDS011;58098;51.680;5.134;2023-10-31T04:51:17;40.78;;;19.55;;
70545;SDS011;58098;51.680;5.134;2023-10-31T04:53:42;42.50;;;18.40;;
70545;SDS011;58098;51.680;5.134;2023-10-31T04:56:14;38.67;;;18.13;;
70545;SDS011;58098;51.680;5.134;2023-10-31T04:58:41;46.80;;;20.02;;
70545;SDS011;58098;51.680;5.134;2023-10-31T05:01:10;47.40;;;21.20;;
70545;SDS011;58098;51.680;5.134;2023-10-31T05:03:37;47.78;;;20.88;;
70545;SDS011;58098;51.680;5.134;2023-10-31T05:06:03;52.78;;;22.65;;
70545;SDS011;58098;51.680;5.134;2023-10-31T05:08:29;59.17;;;24.85;;
70545;SDS011;58098;51.680;5.134;2023-10-31T05:10:55;52.97;;;21.77;;
70545;SDS011;58098;51.680;5.134;2023-10-31T05:13:20;59.72;;;23.50;;
70545;SDS011;58098;51.680;5.134;2023-10-31T05:15:45;52.83;;;23.37;;
70545;SDS011;58098;51.680;5.134;2023-10-31T05:18:11;53.03;;;23.33;;
70545;SDS011;58098;51.680;5.134;2023-10-31T05:20:36;57.07;;;22.73;;
70545;SDS011;58098;51.680;5.134;2023-10-31T05:23:01;58.27;;;24.37;;
70545;SDS011;58098;51.680;5.134;2023-10-31T05:25:27;63.33;;;27.47;;
70545;SDS011;58098;51.680;5.134;2023-10-31T05:27:52;63.37;;;26.07;;
70545;SDS011;58098;51.680;5.134;2023-10-31T05:30:17;58.42;;;25.65;;
70545;SDS011;58098;51.680;5.134;2023-10-31T05:32:43;55.27;;;23.90;;
70545;SDS011;58098;51.680;5.134;2023-10-31T05:35:09;63.03;;;28.27;;
70545;SDS011;58098;51.680;5.134;2023-10-31T05:37:35;70.23;;;27.53;;
70545;SDS011;58098;51.680;5.134;2023-10-31T05:40:00;62.17;;;25.93;;
70545;SDS011;58098;51.680;5.134;2023-10-31T05:42:26;66.35;;;27.98;;
70545;SDS011;58098;51.680;5.134;2023-10-31T05:44:52;66.78;;;27.88;;
70545;SDS011;58098;51.680;5.134;2023-10-31T05:47:18;60.57;;;25.73;;
70545;SDS011;58098;51.680;5.134;2023-10-31T05:49:43;62.70;;;27.43;;
70545;SDS011;58098;51.680;5.134;2023-10-31T05:52:09;62.20;;;26.95;;
70545;SDS011;58098;51.680;5.134;2023-10-31T05:54:35;62.70;;;27.87;;
70545;SDS011;58098;51.680;5.134;2023-10-31T05:57:00;56.40;;;24.40;;
70545;SDS011;58098;51.680;5.134;2023-10-31T05:59:25;52.65;;;23.48;;
70545;SDS011;58098;51.680;5.134;2023-10-31T06:01:51;51.43;;;22.97;;
70545;SDS011;58098;51.680;5.134;2023-10-31T06:04:16;52.13;;;22.77;;
70545;SDS011;58098;51.680;5.134;2023-10-31T06:06:41;49.17;;;21.37;;
70545;SDS011;58098;51.680;5.134;2023-10-31T06:09:07;46.03;;;21.03;;
70545;SDS011;58098;51.680;5.134;2023-10-31T06:11:33;41.70;;;20.10;;
70545;SDS011;58098;51.680;5.134;2023-10-31T06:13:59;44.90;;;20.33;;
70545;SDS011;58098;51.680;5.134;2023-10-31T06:16:25;38.83;;;18.20;;
70545;SDS011;58098;51.680;5.134;2023-10-31T06:18:50;43.88;;;19.90;;
70545;SDS011;58098;51.680;5.134;2023-10-31T06:21:15;42.77;;;19.67;;
70545;SDS011;58098;51.680;5.134;2023-10-31T06:23:40;37.07;;;17.50;;
70545;SDS011;58098;51.680;5.134;2023-10-31T06:26:07;37.67;;;18.00;;
70545;SDS011;58098;51.680;5.134;2023-10-31T06:28:33;35.77;;;17.00;;
70545;SDS011;58098;51.680;5.134;2023-10-31T06:31:00;44.80;;;19.80;;
70545;SDS011;58098;51.680;5.134;2023-10-31T06:33:26;38.00;;;18.02;;
70545;SDS011;58098;51.680;5.134;2023-10-31T06:35:52;36.33;;;17.87;;
70545;SDS011;58098;51.680;5.134;2023-10-31T06:38:18;41.25;;;19.77;;
70545;SDS011;58098;51.680;5.134;2023-10-31T06:40:44;44.40;;;19.63;;
70545;SDS011;58098;51.680;5.134;2023-10-31T06:43:09;37.93;;;18.60;;
70545;SDS011;58098;51.680;5.134;2023-10-31T06:45:35;40.73;;;19.73;;
70545;SDS011;58098;51.680;5.134;2023-10-31T06:48:00;34.10;;;17.77;;
70545;SDS011;58098;51.680;5.134;2023-10-31T06:50:25;36.87;;;18.67;;
70545;SDS011;58098;51.680;5.134;2023-10-31T06:52:51;44.83;;;20.07;;
70545;SDS011;58098;51.680;5.134;2023-10-31T06:55:16;35.77;;;18.00;;
70545;SDS011;58098;51.680;5.134;2023-10-31T06:57:42;42.17;;;19.73;;
70545;SDS011;58098;51.680;5.134;2023-10-31T07:00:08;43.05;;;20.70;;
70545;SDS011;58098;51.680;5.134;2023-10-31T07:02:34;39.33;;;19.00;;
70545;SDS011;58098;51.680;5.134;2023-10-31T07:05:00;39.67;;;19.27;;
70545;SDS011;58098;51.680;5.134;2023-10-31T07:07:25;41.78;;;20.13;;
70545;SDS011;58098;51.680;5.134;2023-10-31T07:09:51;36.90;;;19.10;;
70545;SDS011;58098;51.680;5.134;2023-10-31T07:12:16;39.53;;;19.97;;
70545;SDS011;58098;51.680;5.134;2023-10-31T07:14:41;40.30;;;21.60;;
70545;SDS011;58098;51.680;5.134;2023-10-31T07:17:07;45.80;;;20.53;;
70545;SDS011;58098;51.680;5.134;2023-10-31T07:19:32;39.92;;;19.50;;
70545;SDS011;58098;51.680;5.134;2023-10-31T07:21:58;35.87;;;18.13;;
70545;SDS011;58098;51.680;5.134;2023-10-31T07:24:23;34.47;;;17.23;;
70545;SDS011;58098;51.680;5.134;2023-10-31T07:26:48;43.20;;;21.97;;
70545;SDS011;58098;51.680;5.134;2023-10-31T07:29:13;46.13;;;21.50;;
70545;SDS011;58098;51.680;5.134;2023-10-31T07:31:39;50.20;;;21.67;;
70545;SDS011;58098;51.680;5.134;2023-10-31T07:34:05;40.55;;;20.08;;
70545;SDS011;58098;51.680;5.134;2023-10-31T07:36:31;43.33;;;21.10;;
70545;SDS011;58098;51.680;5.134;2023-10-31T07:39:00;44.78;;;22.50;;
70545;SDS011;58098;51.680;5.134;2023-10-31T07:41:25;44.38;;;21.83;;
70545;SDS011;58098;51.680;5.134;2023-10-31T07:43:51;45.00;;;23.20;;
70545;SDS011;58098;51.680;5.134;2023-10-31T07:46:16;45.40;;;23.20;;
70545;SDS011;58098;51.680;5.134;2023-10-31T07:48:41;48.03;;;24.50;;
70545;SDS011;58098;51.680;5.134;2023-10-31T07:51:07;47.30;;;24.23;;
70545;SDS011;58098;51.680;5.134;2023-10-31T07:53:32;52.73;;;25.27;;
70545;SDS011;58098;51.680;5.134;2023-10-31T07:55:57;50.13;;;24.53;;
70545;SDS011;58098;51.680;5.134;2023-10-31T07:58:23;53.00;;;25.60;;
70545;SDS011;58098;51.680;5.134;2023-10-31T08:00:48;53.73;;;27.30;;
70545;SDS011;58098;51.680;5.134;2023-10-31T08:03:13;48.63;;;25.23;;
70545;SDS011;58098;51.680;5.134;2023-10-31T08:05:39;47.83;;;22.73;;
70545;SDS011;58098;51.680;5.134;2023-10-31T08:08:05;49.60;;;23.77;;
70545;SDS011;58098;51.680;5.134;2023-10-31T08:10:30;46.70;;;23.03;;
70545;SDS011;58098;51.680;5.134;2023-10-31T08:12:55;43.20;;;21.70;;
70545;SDS011;58098;51.680;5.134;2023-10-31T08:15:21;42.00;;;22.93;;
70545;SDS011;58098;51.680;5.134;2023-10-31T08:17:46;45.77;;;24.53;;
70545;SDS011;58098;51.680;5.134;2023-10-31T08:20:11;47.78;;;23.73;;
70545;SDS011;58098;51.680;5.134;2023-10-31T08:22:38;47.33;;;23.27;;
70545;SDS011;58098;51.680;5.134;2023-10-31T08:25:04;48.83;;;24.10;;
70545;SDS011;58098;51.680;5.134;2023-10-31T08:27:29;45.53;;;21.90;;
70545;SDS011;58098;51.680;5.134;2023-10-31T08:29:55;50.70;;;24.17;;
70545;SDS011;58098;51.680;5.134;2023-10-31T08:32:20;55.70;;;23.23;;
70545;SDS011;58098;51.680;5.134;2023-10-31T08:34:47;50.57;;;22.67;;
70545;SDS011;58098;51.680;5.134;2023-10-31T08:37:12;45.80;;;23.80;;
70545;SDS011;58098;51.680;5.134;2023-10-31T08:39:38;50.75;;;23.75;;
70545;SDS011;58098;51.680;5.134;2023-10-31T08:42:03;48.60;;;25.10;;
70545;SDS011;58098;51.680;5.134;2023-10-31T08:44:28;53.87;;;25.93;;
70545;SDS011;58098;51.680;5.134;2023-10-31T08:46:54;60.03;;;26.30;;
70545;SDS011;58098;51.680;5.134;2023-10-31T08:49:19;57.90;;;27.03;;
70545;SDS011;58098;51.680;5.134;2023-10-31T08:51:45;59.10;;;31.05;;
70545;SDS011;58098;51.680;5.134;2023-10-31T08:54:10;61.00;;;29.87;;
70545;SDS011;58098;51.680;5.134;2023-10-31T08:56:35;60.47;;;30.00;;
70545;SDS011;58098;51.680;5.134;2023-10-31T08:59:01;65.83;;;31.23;;
70545;SDS011;58098;51.680;5.134;2023-10-31T09:01:26;74.47;;;32.20;;
70545;SDS011;58098;51.680;5.134;2023-10-31T09:03:54;68.22;;;31.25;;
70545;SDS011;58098;51.680;5.134;2023-10-31T09:06:19;77.10;;;34.67;;
70545;SDS011;58098;51.680;5.134;2023-10-31T09:08:44;84.87;;;39.03;;
70545;SDS011;58098;51.680;5.134;2023-10-31T09:11:10;78.07;;;36.70;;
70545;SDS011;58098;51.680;5.134;2023-10-31T09:13:35;78.10;;;36.17;;
70545;SDS011;58098;51.680;5.134;2023-10-31T09:16:01;75.50;;;37.13;;
70545;SDS011;58098;51.680;5.134;2023-10-31T09:18:26;81.38;;;36.42;;
70545;SDS011;58098;51.680;5.134;2023-10-31T09:20:52;85.30;;;38.40;;
70545;SDS011;58098;51.680;5.134;2023-10-31T09:23:18;84.40;;;36.70;;
70545;SDS011;58098;51.680;5.134;2023-10-31T09:25:43;82.27;;;36.40;;
70545;SDS011;58098;51.680;5.134;2023-10-31T09:28:09;86.03;;;37.57;;
70545;SDS011;58098;51.680;5.134;2023-10-31T09:30:35;83.53;;;35.45;;
70545;SDS011;58098;51.680;5.134;2023-10-31T09:33:00;83.07;;;36.70;;
70545;SDS011;58098;51.680;5.134;2023-10-31T09:35:25;79.03;;;33.87;;
70545;SDS011;58098;51.680;5.134;2023-10-31T09:37:51;81.78;;;33.20;;
70545;SDS011;58098;51.680;5.134;2023-10-31T09:40:17;76.97;;;32.90;;
70545;SDS011;58098;51.680;5.134;2023-10-31T09:42:43;75.70;;;32.17;;
70545;SDS011;58098;51.680;5.134;2023-10-31T09:45:11;77.25;;;33.00;;
70545;SDS011;58098;51.680;5.134;2023-10-31T09:47:36;70.32;;;32.03;;
70545;SDS011;58098;51.680;5.134;2023-10-31T09:50:02;61.37;;;28.90;;
70545;SDS011;58098;51.680;5.134;2023-10-31T09:52:28;66.90;;;30.58;;
70545;SDS011;58098;51.680;5.134;2023-10-31T09:54:54;64.17;;;28.70;;
70545;SDS011;58098;51.680;5.134;2023-10-31T09:57:20;64.30;;;27.48;;
70545;SDS011;58098;51.680;5.134;2023-10-31T09:59:45;64.73;;;27.53;;
70545;SDS011;58098;51.680;5.134;2023-10-31T10:02:10;62.77;;;27.90;;
70545;SDS011;58098;51.680;5.134;2023-10-31T10:04:36;59.57;;;27.37;;
70545;SDS011;58098;51.680;5.134;2023-10-31T10:07:03;64.45;;;27.42;;
70545;SDS011;58098;51.680;5.134;2023-10-31T10:09:29;64.68;;;26.40;;
70545;SDS011;58098;51.680;5.134;2023-10-31T10:11:56;66.05;;;27.67;;
70545;SDS011;58098;51.680;5.134;2023-10-31T10:14:24;67.45;;;26.55;;
70545;SDS011;58098;51.680;5.134;2023-10-31T10:16:51;65.97;;;25.43;;
70545;SDS011;58098;51.680;5.134;2023-10-31T10:19:18;68.28;;;26.85;;
70545;SDS011;58098;51.680;5.134;2023-10-31T10:21:49;62.78;;;27.35;;
70545;SDS011;58098;51.680;5.134;2023-10-31T10:24:17;62.10;;;26.43;;
70545;SDS011;58098;51.680;5.134;2023-10-31T10:26:43;59.45;;;26.35;;
70545;SDS011;58098;51.680;5.134;2023-10-31T10:29:08;60.20;;;25.30;;
70545;SDS011;58098;51.680;5.134;2023-10-31T10:31:34;58.33;;;24.17;;
70545;SDS011;58098;51.680;5.134;2023-10-31T10:33:59;57.40;;;22.80;;
70545;SDS011;58098;51.680;5.134;2023-10-31T10:36:26;56.50;;;24.00;;
70545;SDS011;58098;51.680;5.134;2023-10-31T10:38:52;52.73;;;23.73;;
70545;SDS011;58098;51.680;5.134;2023-10-31T10:41:22;52.67;;;25.67;;
70545;SDS011;58098;51.680;5.134;2023-10-31T10:43:50;46.50;;;21.93;;
70545;SDS011;58098;51.680;5.134;2023-10-31T10:46:30;48.85;;;21.58;;
70545;SDS011;58098;51.680;5.134;2023-10-31T10:49:04;52.60;;;22.33;;
70545;SDS011;58098;51.680;5.134;2023-10-31T10:51:46;48.88;;;23.60;;
70545;SDS011;58098;51.680;5.134;2023-10-31T10:54:19;40.47;;;20.52;;
70545;SDS011;58098;51.680;5.134;2023-10-31T10:56:59;44.00;;;21.13;;
70545;SDS011;58098;51.680;5.134;2023-10-31T10:59:39;45.50;;;20.35;;
70545;SDS011;58098;51.680;5.134;2023-10-31T11:02:07;38.33;;;20.90;;
70545;SDS011;58098;51.680;5.134;2023-10-31T11:04:33;40.72;;;19.80;;
70545;SDS011;58098;51.680;5.134;2023-10-31T11:06:59;39.43;;;18.13;;
70545;SDS011;58098;51.680;5.134;2023-10-31T11:09:26;33.88;;;18.55;;
70545;SDS011;58098;51.680;5.134;2023-10-31T11:11:52;35.15;;;19.00;;
70545;SDS011;58098;51.680;5.134;2023-10-31T11:14:18;30.77;;;17.20;;
70545;SDS011;58098;51.680;5.134;2023-10-31T11:16:45;34.78;;;18.05;;
70545;SDS011;58098;51.680;5.134;2023-10-31T11:19:16;36.00;;;20.95;;
70545;SDS011;58098;51.680;5.134;2023-10-31T11:21:58;39.40;;;19.88;;
70545;SDS011;58098;51.680;5.134;2023-10-31T11:24:31;37.03;;;21.40;;
70545;SDS011;58098;51.680;5.134;2023-10-31T11:26:59;32.97;;;19.73;;
70545;SDS011;58098;51.680;5.134;2023-10-31T11:29:26;38.38;;;21.67;;
70545;SDS011;58098;51.680;5.134;2023-10-31T11:31:53;37.10;;;20.87;;
70545;SDS011;58098;51.680;5.134;2023-10-31T11:34:20;36.67;;;21.38;;
70545;SDS011;58098;51.680;5.134;2023-10-31T11:36:45;36.43;;;21.37;;
70545;SDS011;58098;51.680;5.134;2023-10-31T11:39:15;39.20;;;22.13;;
70545;SDS011;58098;51.680;5.134;2023-10-31T11:41:49;42.70;;;22.70;;
70545;SDS011;58098;51.680;5.134;2023-10-31T11:44:15;42.72;;;21.63;;
70545;SDS011;58098;51.680;5.134;2023-10-31T11:46:41;40.33;;;22.40;;
70545;SDS011;58098;51.680;5.134;2023-10-31T11:49:06;43.58;;;24.10;;
70545;SDS011;58098;51.680;5.134;2023-10-31T11:51:32;42.43;;;23.90;;
70545;SDS011;58098;51.680;5.134;2023-10-31T11:54:01;40.05;;;23.45;;
70545;SDS011;58098;51.680;5.134;2023-10-31T11:56:27;38.77;;;22.90;;
70545;SDS011;58098;51.680;5.134;2023-10-31T11:59:03;37.42;;;23.17;;
70545;SDS011;58098;51.680;5.134;2023-10-31T12:01:29;39.30;;;21.85;;
70545;SDS011;58098;51.680;5.134;2023-10-31T12:03:55;40.60;;;22.63;;
70545;SDS011;58098;51.680;5.134;2023-10-31T12:06:20;38.90;;;23.17;;
70545;SDS011;58098;51.680;5.134;2023-10-31T12:08:46;36.83;;;22.63;;
70545;SDS011;58098;51.680;5.134;2023-10-31T12:11:17;37.40;;;21.58;;
70545;SDS011;58098;51.680;5.134;2023-10-31T12:13:58;36.67;;;23.35;;
70545;SDS011;58098;51.680;5.134;2023-10-31T12:16:32;40.53;;;22.02;;
70545;SDS011;58098;51.680;5.134;2023-10-31T12:21:37;41.73;;;24.20;;
70545;SDS011;58098;51.680;5.134;2023-10-31T12:24:08;38.00;;;22.20;;
70545;SDS011;58098;51.680;5.134;2023-10-31T12:26:34;39.30;;;23.10;;
70545;SDS011;58098;51.680;5.134;2023-10-31T12:29:07;38.95;;;22.13;;
70545;SDS011;58098;51.680;5.134;2023-10-31T12:31:33;37.60;;;22.30;;
70545;SDS011;58098;51.680;5.134;2023-10-31T12:34:04;37.97;;;22.77;;
70545;SDS011;58098;51.680;5.134;2023-10-31T12:36:30;30.08;;;19.65;;
70545;SDS011;58098;51.680;5.134;2023-10-31T12:38:56;31.47;;;19.97;;
70545;SDS011;58098;51.680;5.134;2023-10-31T12:41:21;28.97;;;19.03;;
70545;SDS011;58098;51.680;5.134;2023-10-31T12:43:47;28.85;;;17.98;;
70545;SDS011;58098;51.680;5.134;2023-10-31T12:46:25;28.47;;;16.07;;
70545;SDS011;58098;51.680;5.134;2023-10-31T12:48:52;29.77;;;15.98;;
70545;SDS011;58098;51.680;5.134;2023-10-31T12:51:17;24.87;;;16.20;;
70545;SDS011;58098;51.680;5.134;2023-10-31T12:53:47;24.90;;;16.30;;
70545;SDS011;58098;51.680;5.134;2023-10-31T12:56:34;24.50;;;15.18;;
70545;SDS011;58098;51.680;5.134;2023-10-31T12:58:59;21.67;;;15.25;;
70545;SDS011;58098;51.680;5.134;2023-10-31T13:01:25;17.73;;;13.33;;
70545;SDS011;58098;51.680;5.134;2023-10-31T13:03:50;23.02;;;14.43;;
70545;SDS011;58098;51.680;5.134;2023-10-31T13:06:16;19.97;;;14.17;;
70545;SDS011;58098;51.680;5.134;2023-10-31T13:08:44;22.30;;;14.07;;
70545;SDS011;58098;51.680;5.134;2023-10-31T13:11:11;18.83;;;14.43;;
70545;SDS011;58098;51.680;5.134;2023-10-31T13:13:36;21.63;;;13.33;;
70545;SDS011;58098;51.680;5.134;2023-10-31T13:16:01;20.33;;;13.27;;
70545;SDS011;58098;51.680;5.134;2023-10-31T13:18:27;19.52;;;12.73;;
70545;SDS011;58098;51.680;5.134;2023-10-31T13:20:52;16.70;;;12.07;;
70545;SDS011;58098;51.680;5.134;2023-10-31T13:23:17;17.27;;;11.60;;
70545;SDS011;58098;51.680;5.134;2023-10-31T13:25:43;14.55;;;10.63;;
70545;SDS011;58098;51.680;5.134;2023-10-31T13:28:09;13.10;;;10.00;;
70545;SDS011;58098;51.680;5.134;2023-10-31T13:30:36;12.75;;;8.32;;
70545;SDS011;58098;51.680;5.134;2023-10-31T13:33:02;13.40;;;8.20;;
70545;SDS011;58098;51.680;5.134;2023-10-31T13:35:27;12.23;;;8.43;;
70545;SDS011;58098;51.680;5.134;2023-10-31T13:37:53;11.93;;;7.87;;
70545;SDS011;58098;51.680;5.134;2023-10-31T13:40:18;10.80;;;7.73;;
70545;SDS011;58098;51.680;5.134;2023-10-31T13:42:43;17.83;;;8.00;;
70545;SDS011;58098;51.680;5.134;2023-10-31T13:45:09;12.63;;;7.23;;
70545;SDS011;58098;51.680;5.134;2023-10-31T13:47:34;11.52;;;7.22;;
70545;SDS011;58098;51.680;5.134;2023-10-31T13:49:59;10.47;;;7.53;;
70545;SDS011;58098;51.680;5.134;2023-10-31T13:52:25;14.90;;;8.20;;
70545;SDS011;58098;51.680;5.134;2023-10-31T13:54:51;11.88;;;8.50;;
70545;SDS011;58098;51.680;5.134;2023-10-31T13:57:16;15.87;;;8.80;;
70545;SDS011;58098;51.680;5.134;2023-10-31T13:59:41;8.40;;;7.20;;
70545;SDS011;58098;51.680;5.134;2023-10-31T14:02:06;10.03;;;6.27;;
70545;SDS011;58098;51.680;5.134;2023-10-31T14:04:32;11.20;;;6.20;;
70545;SDS011;58098;51.680;5.134;2023-10-31T14:06:58;9.55;;;6.13;;
70545;SDS011;58098;51.680;5.134;2023-10-31T14:09:24;11.60;;;6.00;;
70545;SDS011;58098;51.680;5.134;2023-10-31T14:11:49;9.37;;;5.50;;
70545;SDS011;58098;51.680;5.134;2023-10-31T14:14:15;9.45;;;5.53;;
70545;SDS011;58098;51.680;5.134;2023-10-31T14:16:40;9.30;;;5.70;;
70545;SDS011;58098;51.680;5.134;2023-10-31T14:19:06;11.73;;;5.90;;